createdAt,value
2023-01-13T00:00:52.752Z,50.60
2023-01-13T00:01:53.068Z,51.56
2023-01-13T00:02:53.444Z,48.02
2023-01-13T00:03:53.807Z,48.98
2023-01-13T00:04:53.989Z,50.11
2023-01-13T00:05:54.182Z,53.01
2023-01-13T00:06:54.494Z,49.95
2023-01-13T00:07:54.782Z,50.43
2023-01-13T00:08:55.026Z,54.14
2023-01-13T00:09:55.364Z,48.66
2023-01-13T00:10:55.641Z,60.75
2023-01-13T00:11:55.942Z,56.24
2023-01-13T00:12:56.186Z,53.17
2023-01-13T00:13:56.459Z,53.01
2023-01-13T00:14:56.750Z,52.05
2023-01-13T00:15:57.068Z,53.82
2023-01-13T00:16:57.245Z,54.30
2023-01-13T00:17:57.559Z,70.25
2023-01-13T00:18:57.807Z,52.69
2023-01-13T00:19:58.130Z,56.88
2023-01-13T00:20:58.603Z,51.56
2023-01-13T00:21:58.695Z,57.20
2023-01-13T00:22:59.036Z,53.50
2023-01-13T00:23:59.341Z,52.21
2023-01-13T00:24:59.671Z,50.11
2023-01-13T00:25:59.875Z,68.96
2023-01-13T00:27:00.207Z,48.50
2023-01-13T00:28:00.911Z,51.08
2023-01-13T00:29:00.837Z,53.33
2023-01-13T00:30:01.068Z,58.17
2023-01-13T00:31:01.446Z,59.30
2023-01-13T00:32:01.681Z,56.88
2023-01-13T00:33:02.090Z,50.76
2023-01-13T00:34:02.326Z,53.82
2023-01-13T00:35:02.614Z,54.46
2023-01-13T00:36:02.908Z,48.98
2023-01-13T00:37:03.223Z,52.05
2023-01-13T00:38:03.560Z,59.14
2023-01-13T00:39:03.889Z,52.69
2023-01-13T00:40:04.171Z,65.74
2023-01-13T00:41:04.478Z,49.95
2023-01-13T00:42:04.737Z,51.40
2023-01-13T00:43:04.984Z,74.77
2023-01-13T00:44:05.340Z,60.59
2023-01-13T00:45:05.595Z,54.95
2023-01-13T00:46:06.075Z,55.75
2023-01-13T00:47:06.235Z,48.34
2023-01-13T00:48:06.555Z,48.50
2023-01-13T00:49:06.839Z,50.76
2023-01-13T00:50:07.149Z,52.05
2023-01-13T00:51:07.545Z,48.98
2023-01-13T00:52:07.789Z,51.40
2023-01-13T00:53:08.116Z,51.24
2023-01-13T00:54:08.456Z,49.79
2023-01-13T00:55:08.717Z,51.88
2023-01-13T00:56:09.029Z,51.56
2023-01-13T00:57:09.392Z,50.27
2023-01-13T00:58:09.641Z,49.15
2023-01-13T00:59:09.953Z,47.53
2023-01-13T01:00:10.305Z,49.31
2023-01-13T01:01:10.752Z,49.47
2023-01-13T01:02:11.027Z,61.23
2023-01-13T01:03:11.159Z,52.37
2023-01-13T01:04:11.529Z,51.08
2023-01-13T01:05:11.787Z,56.72
2023-01-13T01:06:12.096Z,52.05
2023-01-13T01:07:12.459Z,54.14
2023-01-13T01:08:12.768Z,50.11
2023-01-13T01:09:13.036Z,52.21
2023-01-13T01:10:13.368Z,49.31
2023-01-13T01:11:13.644Z,53.33
2023-01-13T01:12:13.994Z,64.61
2023-01-13T01:13:14.278Z,52.53
2023-01-13T01:14:14.599Z,54.46
2023-01-13T01:15:14.874Z,51.40
2023-01-13T01:16:15.241Z,57.36
2023-01-13T01:17:15.558Z,54.62
2023-01-13T01:18:15.803Z,52.85
2023-01-13T01:19:16.527Z,51.56
2023-01-13T01:20:16.403Z,50.11
2023-01-13T01:21:16.698Z,49.31
2023-01-13T01:22:16.985Z,50.43
2023-01-13T01:23:17.309Z,63.81
2023-01-13T01:24:17.644Z,52.21
2023-01-13T01:25:17.947Z,75.89
2023-01-13T01:26:18.217Z,49.47
2023-01-13T01:27:18.567Z,53.17
2023-01-13T01:28:18.859Z,53.50
2023-01-13T01:29:19.172Z,50.43
2023-01-13T01:30:19.440Z,51.08
2023-01-13T01:31:19.826Z,49.95
2023-01-13T01:32:20.104Z,49.47
2023-01-13T01:33:20.403Z,66.06
2023-01-13T01:34:20.702Z,50.60
2023-01-13T01:35:20.991Z,49.63
2023-01-13T01:36:21.277Z,51.56
2023-01-13T01:37:21.580Z,48.98
2023-01-13T01:38:21.898Z,49.31
2023-01-13T01:39:22.247Z,48.34
2023-01-13T01:40:22.526Z,48.82
2023-01-13T01:41:22.665Z,49.95
2023-01-13T01:42:23.011Z,62.04
2023-01-13T01:43:23.291Z,49.15
2023-01-13T01:44:23.607Z,48.98
2023-01-13T01:45:23.994Z,49.47
2023-01-13T01:46:24.231Z,49.63
2023-01-13T01:47:24.446Z,50.76
2023-01-13T01:48:24.710Z,54.79
2023-01-13T01:49:24.989Z,48.98
2023-01-13T01:50:25.338Z,50.27
2023-01-13T01:51:25.678Z,70.90
2023-01-13T01:52:25.975Z,49.95
2023-01-13T01:53:26.354Z,48.98
2023-01-13T01:54:26.539Z,48.66
2023-01-13T01:55:26.820Z,49.47
2023-01-13T01:56:27.100Z,48.18
2023-01-13T01:57:27.436Z,48.66
2023-01-13T01:58:27.717Z,49.95
2023-01-13T01:59:28.024Z,50.43
2023-01-13T02:00:28.396Z,51.24
2023-01-13T02:01:28.716Z,53.01
2023-01-13T02:02:29.054Z,54.14
2023-01-13T02:03:29.192Z,53.98
2023-01-13T02:04:29.530Z,48.66
2023-01-13T02:05:29.867Z,57.69
2023-01-13T02:06:30.154Z,52.85
2023-01-13T02:07:30.443Z,49.47
2023-01-13T02:08:30.746Z,52.85
2023-01-13T02:09:31.057Z,49.63
2023-01-13T02:10:31.356Z,54.14
2023-01-13T02:11:31.687Z,48.34
2023-01-13T02:12:31.963Z,48.66
2023-01-13T02:13:32.279Z,48.34
2023-01-13T02:14:32.449Z,49.63
2023-01-13T02:15:32.833Z,51.08
2023-01-13T02:16:33.182Z,65.58
2023-01-13T02:17:33.318Z,50.11
2023-01-13T02:18:33.641Z,49.63
2023-01-13T02:19:33.952Z,50.11
2023-01-13T02:20:34.311Z,53.01
2023-01-13T02:21:34.583Z,48.98
2023-01-13T02:22:34.944Z,55.43
2023-01-13T02:23:35.224Z,63.97
2023-01-13T02:24:35.514Z,52.05
2023-01-13T02:25:35.902Z,63.81
2023-01-13T02:26:36.054Z,52.05
2023-01-13T02:27:36.425Z,60.26
2023-01-13T02:28:36.667Z,50.27
2023-01-13T02:29:36.975Z,47.86
2023-01-13T02:30:37.252Z,48.98
2023-01-13T02:31:37.580Z,48.50
2023-01-13T02:32:37.893Z,47.70
2023-01-13T02:33:38.220Z,57.69
2023-01-13T02:34:38.558Z,52.37
2023-01-13T02:35:38.753Z,48.50
2023-01-13T02:36:39.021Z,52.69
2023-01-13T02:37:39.334Z,48.50
2023-01-13T02:38:39.629Z,49.47
2023-01-13T02:39:39.905Z,51.72
2023-01-13T02:40:40.208Z,50.60
2023-01-13T02:41:40.471Z,48.66
2023-01-13T02:42:40.789Z,50.43
2023-01-13T02:43:41.051Z,49.95
2023-01-13T02:44:41.430Z,54.30
2023-01-13T02:45:41.789Z,55.59
2023-01-13T02:46:41.987Z,49.15
2023-01-13T02:47:42.300Z,48.98
2023-01-13T02:48:42.561Z,58.97
2023-01-13T02:49:42.858Z,49.63
2023-01-13T02:50:43.159Z,50.11
2023-01-13T02:51:43.514Z,48.82
2023-01-13T02:52:43.784Z,48.66
2023-01-13T02:53:44.111Z,48.98
2023-01-13T02:54:44.407Z,48.82
2023-01-13T02:55:44.665Z,53.33
2023-01-13T02:56:45.062Z,50.76
2023-01-13T02:57:45.255Z,49.31
2023-01-13T02:58:45.564Z,49.15
2023-01-13T02:59:45.906Z,51.72
2023-01-13T03:00:46.271Z,49.63
2023-01-13T03:01:46.714Z,50.27
2023-01-13T03:02:46.829Z,49.95
2023-01-13T03:03:47.130Z,50.76
2023-01-13T03:04:47.434Z,49.47
2023-01-13T03:05:47.741Z,50.43
2023-01-13T03:06:48.059Z,51.72
2023-01-13T03:07:48.392Z,53.01
2023-01-13T03:08:48.703Z,53.33
2023-01-13T03:09:48.970Z,68.64
2023-01-13T03:10:49.331Z,50.11
2023-01-13T03:11:49.631Z,57.04
2023-01-13T03:12:50.026Z,52.05
2023-01-13T03:13:50.182Z,50.43
2023-01-13T03:14:50.493Z,49.79
2023-01-13T03:15:50.834Z,51.24
2023-01-13T03:16:51.221Z,51.88
2023-01-13T03:17:51.425Z,60.26
2023-01-13T03:18:51.758Z,52.69
2023-01-13T03:19:52.041Z,55.75
2023-01-13T03:20:52.393Z,52.05
2023-01-13T03:21:52.600Z,54.30
2023-01-13T03:22:52.904Z,52.53
2023-01-13T03:23:53.186Z,51.56
2023-01-13T03:24:53.491Z,49.63
2023-01-13T03:25:53.897Z,52.85
2023-01-13T03:26:54.064Z,51.08
2023-01-13T03:27:54.388Z,49.95
2023-01-13T03:28:54.760Z,49.47
2023-01-13T03:29:54.927Z,48.18
2023-01-13T03:30:55.297Z,51.08
2023-01-13T03:31:55.429Z,51.08
2023-01-13T03:32:55.749Z,49.31
2023-01-13T03:33:56.060Z,51.24
2023-01-13T03:34:56.338Z,49.47
2023-01-13T03:35:56.630Z,58.33
2023-01-13T03:36:56.853Z,54.62
2023-01-13T03:37:57.130Z,53.01
2023-01-13T03:38:57.488Z,53.01
2023-01-13T03:39:57.707Z,50.76
2023-01-13T03:40:58.030Z,51.56
2023-01-13T03:41:58.732Z,58.01
2023-01-13T03:42:58.626Z,56.72
2023-01-13T03:43:59.795Z,49.47
2023-01-13T03:44:59.264Z,53.66
2023-01-13T03:45:59.585Z,49.95
2023-01-13T03:46:59.905Z,51.24
2023-01-13T03:48:00.156Z,51.56
2023-01-13T03:49:00.493Z,48.98
2023-01-13T03:50:00.784Z,51.88
2023-01-13T03:51:01.089Z,72.19
2023-01-13T03:52:01.348Z,51.40
2023-01-13T03:53:01.689Z,52.05
2023-01-13T03:54:01.960Z,52.21
2023-01-13T03:55:02.384Z,53.66
2023-01-13T03:56:02.546Z,49.79
2023-01-13T03:57:02.820Z,69.13
2023-01-13T03:58:03.140Z,51.08
2023-01-13T03:59:03.473Z,51.08
2023-01-13T04:00:03.837Z,51.56
2023-01-13T04:01:04.205Z,49.95
2023-01-13T04:02:04.364Z,51.08
2023-01-13T04:03:04.622Z,53.82
2023-01-13T04:04:04.917Z,51.24
2023-01-13T04:05:05.219Z,53.01
2023-01-13T04:06:05.401Z,50.11
2023-01-13T04:07:05.761Z,59.78
2023-01-13T04:08:06.053Z,51.40
2023-01-13T04:09:06.415Z,59.30
2023-01-13T04:10:06.617Z,53.82
2023-01-13T04:11:06.945Z,54.30
2023-01-13T04:12:07.275Z,51.08
2023-01-13T04:13:07.512Z,53.66
2023-01-13T04:14:07.676Z,50.60
2023-01-13T04:15:07.983Z,58.17
2023-01-13T04:16:08.443Z,53.50
2023-01-13T04:17:08.592Z,52.69
2023-01-13T04:18:08.910Z,54.95
2023-01-13T04:19:09.241Z,56.88
2023-01-13T04:20:09.533Z,66.23
2023-01-13T04:21:09.827Z,63.49
2023-01-13T04:22:10.041Z,56.07
2023-01-13T04:23:10.470Z,53.01
2023-01-13T04:24:10.685Z,51.88
2023-01-13T04:25:10.991Z,53.01
2023-01-13T04:26:11.706Z,53.50
2023-01-13T04:27:11.507Z,58.01
2023-01-13T04:28:11.836Z,57.85
2023-01-13T04:29:14.665Z,58.65
2023-01-13T04:30:12.370Z,53.66
2023-01-13T04:31:12.770Z,53.01
2023-01-13T04:32:12.959Z,52.85
2023-01-13T04:33:13.296Z,52.37
2023-01-13T04:34:13.569Z,58.49
2023-01-13T04:35:13.801Z,58.81
2023-01-13T04:36:14.132Z,53.17
2023-01-13T04:37:14.491Z,52.53
2023-01-13T04:38:14.788Z,53.98
2023-01-13T04:39:15.055Z,62.36
2023-01-13T04:40:15.348Z,73.48
2023-01-13T04:41:15.730Z,55.27
2023-01-13T04:42:15.916Z,56.56
2023-01-13T04:43:16.227Z,51.56
2023-01-13T04:44:16.514Z,61.71
2023-01-13T04:45:16.817Z,59.46
2023-01-13T04:46:17.515Z,57.69
2023-01-13T04:47:17.401Z,56.40
2023-01-13T04:48:17.686Z,56.24
2023-01-13T04:49:17.995Z,56.72
2023-01-13T04:50:18.328Z,55.27
2023-01-13T04:51:18.637Z,54.14
2023-01-13T04:52:18.975Z,56.40
2023-01-13T04:53:19.119Z,54.14
2023-01-13T04:54:19.402Z,57.20
2023-01-13T04:55:19.719Z,52.85
2023-01-13T04:56:19.949Z,51.24
2023-01-13T04:57:20.249Z,54.62
2023-01-13T04:58:20.531Z,60.42
2023-01-13T04:59:20.828Z,53.50
2023-01-13T05:00:21.133Z,60.75
2023-01-13T05:01:21.596Z,55.43
2023-01-13T05:02:21.804Z,56.88
2023-01-13T05:03:22.061Z,53.50
2023-01-13T05:04:22.382Z,56.72
2023-01-13T05:05:22.675Z,57.04
2023-01-13T05:06:22.963Z,54.46
2023-01-13T05:07:23.303Z,54.14
2023-01-13T05:08:23.596Z,55.91
2023-01-13T05:09:23.919Z,64.61
2023-01-13T05:10:24.309Z,52.53
2023-01-13T05:11:24.535Z,68.32
2023-01-13T05:12:24.711Z,76.38
2023-01-13T05:13:25.048Z,56.72
2023-01-13T05:14:25.362Z,57.52
2023-01-13T05:15:25.658Z,54.30
2023-01-13T05:16:26.008Z,63.97
2023-01-13T05:17:26.301Z,57.04
2023-01-13T05:18:26.693Z,61.23
2023-01-13T05:19:26.953Z,58.33
2023-01-13T05:20:27.240Z,60.26
2023-01-13T05:21:27.561Z,64.94
2023-01-13T05:22:27.777Z,64.61
2023-01-13T05:23:28.184Z,61.39
2023-01-13T05:24:28.421Z,66.39
2023-01-13T05:25:28.749Z,55.43
2023-01-13T05:26:29.022Z,78.79
2023-01-13T05:27:29.359Z,63.00
2023-01-13T05:28:29.666Z,60.59
2023-01-13T05:29:29.905Z,59.78
2023-01-13T05:30:30.176Z,58.97
2023-01-13T05:31:30.481Z,61.71
2023-01-13T05:32:30.706Z,56.88
2023-01-13T05:33:30.993Z,55.75
2023-01-13T05:34:31.277Z,54.62
2023-01-13T05:35:31.585Z,66.55
2023-01-13T05:36:31.862Z,59.78
2023-01-13T05:37:32.200Z,65.74
2023-01-13T05:38:32.434Z,67.51
2023-01-13T05:39:32.731Z,57.69
2023-01-13T05:40:33.032Z,83.63
2023-01-13T05:41:33.355Z,72.51
2023-01-13T05:42:33.673Z,59.78
2023-01-13T05:43:34.180Z,58.97
2023-01-13T05:44:34.267Z,57.36
2023-01-13T05:45:34.566Z,58.81
2023-01-13T05:46:34.802Z,54.30
2023-01-13T05:47:35.077Z,61.39
2023-01-13T05:48:35.402Z,56.72
2023-01-13T05:49:36.632Z,56.56
2023-01-13T05:50:35.831Z,74.77
2023-01-13T05:51:36.178Z,56.72
2023-01-13T05:52:36.487Z,63.33
2023-01-13T05:53:36.814Z,58.65
2023-01-13T05:54:37.060Z,58.17
2023-01-13T05:55:37.351Z,54.62
2023-01-13T05:56:37.599Z,56.40
2023-01-13T05:57:37.908Z,57.52
2023-01-13T05:58:38.277Z,55.43
2023-01-13T05:59:38.529Z,61.23
2023-01-13T06:00:41.033Z,59.78
2023-01-13T06:01:39.005Z,64.94
2023-01-13T06:02:39.406Z,72.19
2023-01-13T06:03:39.722Z,71.06
2023-01-13T06:04:39.937Z,60.91
2023-01-13T06:05:40.287Z,59.62
2023-01-13T06:06:40.589Z,58.49
2023-01-13T06:07:40.916Z,60.75
2023-01-13T06:08:41.179Z,60.75
2023-01-13T06:09:41.507Z,61.87
2023-01-13T06:10:41.809Z,57.85
2023-01-13T06:11:42.133Z,64.94
2023-01-13T06:12:42.365Z,61.23
2023-01-13T06:13:42.666Z,55.59
2023-01-13T06:14:42.956Z,64.45
2023-01-13T06:15:43.286Z,60.42
2023-01-13T06:16:43.563Z,65.10
2023-01-13T06:17:43.900Z,60.59
2023-01-13T06:18:44.141Z,74.12
2023-01-13T06:19:44.451Z,76.22
2023-01-13T06:20:44.783Z,63.81
2023-01-13T06:21:44.964Z,64.45
2023-01-13T06:22:45.236Z,59.78
2023-01-13T06:23:45.841Z,56.72
2023-01-13T06:24:45.755Z,71.06
2023-01-13T06:25:46.968Z,59.14
2023-01-13T06:26:50.347Z,61.07
2023-01-13T06:27:46.957Z,63.16
2023-01-13T06:28:47.223Z,60.91
2023-01-13T06:29:47.179Z,60.42
2023-01-13T06:30:47.486Z,60.42
2023-01-13T06:31:47.846Z,75.09
2023-01-13T06:32:48.103Z,67.51
2023-01-13T06:33:48.495Z,64.78
2023-01-13T06:34:48.691Z,63.81
2023-01-13T06:35:49.003Z,63.00
2023-01-13T06:36:49.554Z,67.51
2023-01-13T06:37:49.584Z,60.10
2023-01-13T06:38:49.889Z,74.12
2023-01-13T06:39:50.268Z,65.74
2023-01-13T06:40:50.552Z,79.92
2023-01-13T06:41:50.858Z,64.78
2023-01-13T06:42:51.198Z,60.59
2023-01-13T06:43:51.524Z,68.32
2023-01-13T06:44:51.671Z,73.96
2023-01-13T06:45:52.023Z,67.68
2023-01-13T06:46:52.352Z,62.68
2023-01-13T06:47:52.630Z,63.49
2023-01-13T06:48:53.334Z,61.55
2023-01-13T06:49:53.310Z,62.20
2023-01-13T06:50:53.456Z,77.50
2023-01-13T06:51:53.719Z,72.03
2023-01-13T06:52:54.121Z,63.97
2023-01-13T06:53:54.202Z,63.81
2023-01-13T06:54:54.486Z,74.28
2023-01-13T06:55:54.820Z,66.23
2023-01-13T06:56:55.057Z,70.09
2023-01-13T06:57:55.399Z,60.26
2023-01-13T06:58:56.073Z,72.99
2023-01-13T06:59:55.893Z,64.45
2023-01-13T07:00:56.230Z,67.19
2023-01-13T07:01:56.611Z,62.84
2023-01-13T07:02:56.653Z,59.46
2023-01-13T07:03:57.029Z,61.23
2023-01-13T07:04:57.784Z,73.48
2023-01-13T07:05:57.471Z,59.14
2023-01-13T07:06:57.830Z,61.55
2023-01-13T07:07:58.218Z,60.59
2023-01-13T07:08:58.454Z,67.19
2023-01-13T07:09:58.669Z,77.18
2023-01-13T07:10:58.847Z,59.30
2023-01-13T07:11:59.111Z,77.67
2023-01-13T07:12:59.339Z,71.06
2023-01-13T07:13:59.683Z,61.55
2023-01-13T07:14:59.911Z,62.36
2023-01-13T07:16:00.366Z,65.10
2023-01-13T07:17:00.587Z,60.91
2023-01-13T07:18:00.902Z,69.77
2023-01-13T07:19:01.099Z,71.70
2023-01-13T07:20:01.406Z,73.96
2023-01-13T07:21:01.677Z,64.45
2023-01-13T07:22:01.951Z,60.91
2023-01-13T07:23:02.123Z,64.29
2023-01-13T07:24:02.539Z,71.70
2023-01-13T07:25:02.817Z,72.35
2023-01-13T07:26:03.057Z,61.23
2023-01-13T07:27:03.249Z,67.35
2023-01-13T07:28:03.613Z,56.56
2023-01-13T07:29:03.838Z,75.25
2023-01-13T07:30:04.086Z,57.04
2023-01-13T07:31:04.384Z,80.08
2023-01-13T07:32:04.872Z,68.32
2023-01-13T07:33:05.070Z,76.22
2023-01-13T07:34:05.436Z,77.02
2023-01-13T07:35:05.743Z,65.90
2023-01-13T07:36:05.913Z,64.45
2023-01-13T07:37:06.281Z,69.61
2023-01-13T07:38:06.524Z,64.94
2023-01-13T07:39:06.713Z,66.06
2023-01-13T07:40:07.133Z,68.64
2023-01-13T07:41:07.271Z,59.94
2023-01-13T07:42:07.672Z,70.58
2023-01-13T07:43:07.958Z,73.64
2023-01-13T07:44:08.240Z,67.68
2023-01-13T07:45:10.313Z,65.74
2023-01-13T07:46:08.957Z,67.35
2023-01-13T07:47:09.068Z,64.13
2023-01-13T07:48:09.325Z,60.42
2023-01-13T07:49:09.568Z,65.58
2023-01-13T07:50:09.860Z,58.49
2023-01-13T07:51:10.098Z,59.62
2023-01-13T07:52:10.310Z,69.77
2023-01-13T07:53:10.545Z,78.79
2023-01-13T07:54:10.850Z,66.06
2023-01-13T07:55:10.992Z,61.71
2023-01-13T07:56:11.391Z,63.97
2023-01-13T07:57:11.624Z,62.68
2023-01-13T07:58:11.838Z,70.09
2023-01-13T07:59:12.100Z,67.35
2023-01-13T08:00:13.054Z,63.49
2023-01-13T08:01:12.723Z,62.84
2023-01-13T08:02:13.136Z,68.16
2023-01-13T08:03:13.107Z,70.09
2023-01-13T08:04:13.345Z,64.29
2023-01-13T08:05:13.609Z,59.46
2023-01-13T08:06:13.862Z,63.97
2023-01-13T08:07:14.098Z,73.64
2023-01-13T08:08:14.333Z,64.78
2023-01-13T08:09:15.045Z,63.16
2023-01-13T08:10:14.888Z,67.84
2023-01-13T08:11:15.125Z,68.48
2023-01-13T08:12:15.389Z,71.38
2023-01-13T08:13:15.648Z,65.42
2023-01-13T08:14:15.921Z,60.59
2023-01-13T08:15:16.263Z,61.87
2023-01-13T08:16:16.479Z,61.23
2023-01-13T08:17:17.756Z,63.33
2023-01-13T08:18:17.026Z,75.57
2023-01-13T08:19:17.291Z,72.83
2023-01-13T08:20:17.590Z,63.16
2023-01-13T08:21:17.752Z,66.23
2023-01-13T08:22:18.050Z,62.84
2023-01-13T08:23:18.265Z,63.33
2023-01-13T08:24:18.576Z,60.10
2023-01-13T08:25:18.785Z,61.55
2023-01-13T08:26:19.076Z,73.80
2023-01-13T08:27:19.297Z,66.55
2023-01-13T08:28:19.559Z,61.07
2023-01-13T08:29:19.808Z,60.75
2023-01-13T08:30:20.166Z,64.78
2023-01-13T08:31:20.492Z,61.87
2023-01-13T08:32:20.642Z,70.90
2023-01-13T08:33:20.991Z,59.78
2023-01-13T08:34:21.231Z,62.20
2023-01-13T08:35:21.484Z,61.55
2023-01-13T08:36:21.736Z,64.13
2023-01-13T08:37:22.325Z,72.35
2023-01-13T08:38:22.308Z,73.32
2023-01-13T08:39:22.538Z,72.67
2023-01-13T08:40:22.798Z,73.48
2023-01-13T08:41:23.086Z,62.36
2023-01-13T08:42:23.338Z,64.29
2023-01-13T08:43:23.554Z,66.87
2023-01-13T08:44:23.817Z,66.55
2023-01-13T08:45:24.091Z,58.97
2023-01-13T08:46:24.323Z,67.03
2023-01-13T08:47:24.570Z,69.45
2023-01-13T08:48:24.864Z,66.55
2023-01-13T08:49:25.099Z,61.71
2023-01-13T08:50:25.444Z,69.61
2023-01-13T08:51:25.629Z,63.33
2023-01-13T08:52:25.987Z,57.69
2023-01-13T08:53:26.269Z,64.61
2023-01-13T08:54:26.513Z,65.42
2023-01-13T08:55:26.806Z,76.38
2023-01-13T08:56:27.086Z,73.48
2023-01-13T08:57:27.337Z,60.10
2023-01-13T08:58:27.573Z,71.38
2023-01-13T08:59:27.812Z,67.35
2023-01-13T09:00:28.055Z,72.83
2023-01-13T09:01:28.417Z,62.84
2023-01-13T09:02:28.636Z,63.97
2023-01-13T09:03:28.871Z,68.32
2023-01-13T09:04:29.217Z,60.10
2023-01-13T09:05:29.404Z,60.75
2023-01-13T09:06:29.729Z,74.93
2023-01-13T09:07:29.943Z,77.02
2023-01-13T09:08:30.200Z,58.49
2023-01-13T09:09:30.429Z,76.38
2023-01-13T09:10:30.708Z,57.69
2023-01-13T09:11:30.975Z,74.93
2023-01-13T09:12:31.423Z,65.58
2023-01-13T09:13:31.491Z,63.65
2023-01-13T09:14:32.062Z,61.87
2023-01-13T09:15:32.192Z,61.23
2023-01-13T09:16:32.446Z,61.39
2023-01-13T09:17:32.670Z,68.00
2023-01-13T09:18:32.954Z,72.03
2023-01-13T09:19:33.271Z,71.70
2023-01-13T09:20:33.538Z,77.99
2023-01-13T09:21:33.784Z,68.16
2023-01-13T09:22:34.068Z,72.35
2023-01-13T09:23:34.315Z,68.64
2023-01-13T09:24:34.591Z,68.32
2023-01-13T09:25:34.834Z,71.54
2023-01-13T09:26:35.128Z,70.58
2023-01-13T09:27:35.363Z,67.68
2023-01-13T09:28:35.646Z,66.55
2023-01-13T09:29:36.314Z,72.35
2023-01-13T09:30:36.306Z,70.25
2023-01-13T09:31:36.501Z,82.66
2023-01-13T09:32:36.765Z,76.38
2023-01-13T09:33:36.993Z,77.02
2023-01-13T09:34:37.275Z,69.61
2023-01-13T09:35:37.540Z,73.15
2023-01-13T09:36:37.822Z,67.03
2023-01-13T09:37:38.108Z,73.48
2023-01-13T09:38:38.443Z,72.19
2023-01-13T09:39:38.694Z,72.03
2023-01-13T09:40:38.910Z,71.38
2023-01-13T09:41:39.148Z,71.38
2023-01-13T09:42:39.551Z,71.70
2023-01-13T09:43:39.726Z,75.89
2023-01-13T09:44:39.998Z,75.41
2023-01-13T09:45:40.303Z,74.77
2023-01-13T09:46:40.672Z,62.84
2023-01-13T09:47:40.916Z,72.99
2023-01-13T09:48:41.218Z,65.90
2023-01-13T09:49:41.542Z,77.18
2023-01-13T09:50:41.739Z,70.09
2023-01-13T09:51:41.970Z,82.02
2023-01-13T09:52:42.310Z,63.16
2023-01-13T09:53:42.557Z,61.39
2023-01-13T09:54:42.894Z,69.61
2023-01-13T09:55:43.071Z,61.71
2023-01-13T09:56:43.490Z,64.45
2023-01-13T09:57:43.760Z,61.23
2023-01-13T09:58:44.215Z,69.61
2023-01-13T09:59:44.252Z,66.55
2023-01-13T10:00:44.564Z,69.29
2023-01-13T10:01:44.853Z,58.81
2023-01-13T10:02:45.111Z,72.35
2023-01-13T10:03:45.346Z,69.93
2023-01-13T10:04:45.628Z,69.93
2023-01-13T10:05:45.855Z,68.64
2023-01-13T10:06:46.164Z,72.51
2023-01-13T10:07:46.399Z,60.26
2023-01-13T10:08:46.765Z,71.38
2023-01-13T10:09:46.943Z,72.35
2023-01-13T10:10:47.231Z,63.33
2023-01-13T10:11:47.476Z,64.29
2023-01-13T10:12:47.923Z,69.13
2023-01-13T10:13:48.163Z,72.19
2023-01-13T10:14:48.475Z,72.99
2023-01-13T10:15:48.700Z,63.33
2023-01-13T10:16:48.981Z,77.50
2023-01-13T10:17:49.203Z,59.62
2023-01-13T10:18:49.497Z,69.61
2023-01-13T10:19:49.723Z,64.94
2023-01-13T10:20:49.995Z,74.44
2023-01-13T10:21:50.240Z,62.68
2023-01-13T10:22:50.544Z,74.60
2023-01-13T10:23:50.821Z,64.29
2023-01-13T10:24:51.062Z,64.61
2023-01-13T10:25:51.357Z,72.51
2023-01-13T10:26:51.587Z,67.19
2023-01-13T10:27:51.877Z,65.10
2023-01-13T10:28:52.224Z,68.32
2023-01-13T10:29:52.457Z,62.20
2023-01-13T10:30:52.815Z,70.25
2023-01-13T10:31:53.041Z,64.78
2023-01-13T10:32:53.323Z,66.87
2023-01-13T10:33:53.583Z,74.60
2023-01-13T10:34:53.862Z,74.12
2023-01-13T10:35:54.173Z,64.45
2023-01-13T10:36:54.451Z,58.49
2023-01-13T10:37:54.761Z,64.61
2023-01-13T10:38:57.202Z,60.75
2023-01-13T10:39:55.324Z,65.74
2023-01-13T10:40:55.629Z,71.38
2023-01-13T10:41:55.938Z,63.65
2023-01-13T10:42:56.281Z,67.03
2023-01-13T10:43:56.377Z,67.84
2023-01-13T10:44:56.646Z,68.00
2023-01-13T10:45:57.016Z,72.35
2023-01-13T10:46:57.276Z,68.00
2023-01-13T10:47:57.478Z,72.67
2023-01-13T10:48:57.762Z,77.18
2023-01-13T10:49:58.018Z,68.48
2023-01-13T10:50:58.276Z,76.05
2023-01-13T10:51:58.557Z,62.04
2023-01-13T10:52:58.814Z,76.86
2023-01-13T10:53:59.095Z,58.49
2023-01-13T10:54:59.403Z,67.03
2023-01-13T10:55:59.612Z,77.50
2023-01-13T10:56:59.953Z,60.26
2023-01-13T10:58:00.177Z,66.39
2023-01-13T10:59:00.428Z,68.80
2023-01-13T11:00:00.727Z,65.26
2023-01-13T11:01:00.950Z,64.13
2023-01-13T11:02:03.803Z,67.03
2023-01-13T11:03:01.574Z,65.26
2023-01-13T11:04:02.119Z,75.09
2023-01-13T11:05:02.104Z,71.38
2023-01-13T11:06:02.421Z,67.68
2023-01-13T11:07:02.810Z,68.32
2023-01-13T11:08:03.186Z,64.61
2023-01-13T11:09:03.417Z,63.81
2023-01-13T11:10:03.520Z,65.42
2023-01-13T11:11:03.868Z,61.55
2023-01-13T11:12:04.122Z,75.89
2023-01-13T11:13:04.454Z,68.80
2023-01-13T11:14:04.670Z,68.00
2023-01-13T11:15:04.946Z,74.93
2023-01-13T11:16:05.251Z,62.20
2023-01-13T11:17:05.577Z,65.74
2023-01-13T11:18:05.765Z,61.07
2023-01-13T11:19:06.089Z,65.42
2023-01-13T11:20:06.314Z,69.29
2023-01-13T11:21:06.634Z,67.51
2023-01-13T11:22:06.883Z,64.45
2023-01-13T11:23:07.668Z,75.41
2023-01-13T11:24:07.466Z,75.57
2023-01-13T11:25:07.821Z,74.77
2023-01-13T11:26:08.109Z,70.25
2023-01-13T11:27:08.340Z,58.65
2023-01-13T11:28:08.730Z,71.06
2023-01-13T11:29:08.849Z,67.84
2023-01-13T11:30:09.229Z,72.67
2023-01-13T11:31:09.631Z,78.31
2023-01-13T11:32:09.721Z,71.54
2023-01-13T11:33:10.037Z,70.25
2023-01-13T11:34:10.243Z,59.94
2023-01-13T11:35:10.542Z,62.52
2023-01-13T11:36:10.862Z,68.48
2023-01-13T11:37:11.190Z,61.71
2023-01-13T11:38:11.444Z,61.07
2023-01-13T11:39:11.762Z,60.26
2023-01-13T11:40:12.029Z,64.29
2023-01-13T11:41:12.291Z,73.64
2023-01-13T11:42:12.595Z,59.94
2023-01-13T11:43:12.838Z,72.99
2023-01-13T11:44:13.235Z,59.78
2023-01-13T11:45:13.362Z,74.93
2023-01-13T11:46:13.633Z,71.38
2023-01-13T11:47:13.909Z,60.26
2023-01-13T11:48:14.135Z,62.20
2023-01-13T11:49:14.480Z,74.28
2023-01-13T11:50:14.785Z,62.52
2023-01-13T11:51:15.098Z,64.94
2023-01-13T11:52:15.295Z,63.65
2023-01-13T11:53:15.653Z,72.51
2023-01-13T11:54:16.366Z,67.03
2023-01-13T11:55:17.422Z,75.25
2023-01-13T11:56:17.435Z,72.35
2023-01-13T11:57:18.281Z,66.23
2023-01-13T11:58:18.406Z,65.10
2023-01-13T11:59:18.951Z,68.48
2023-01-13T12:00:20.516Z,72.83
2023-01-13T12:01:23.186Z,71.22
2023-01-13T12:02:20.237Z,72.67
2023-01-13T12:03:21.214Z,66.87
2023-01-13T12:04:19.395Z,64.45
2023-01-13T12:05:19.216Z,61.87
2023-01-13T12:06:19.422Z,64.61
2023-01-13T12:07:22.188Z,71.06
2023-01-13T12:08:20.044Z,65.58
2023-01-13T12:09:20.346Z,68.64
2023-01-13T12:10:20.585Z,64.45
2023-01-13T12:11:20.809Z,67.51
2023-01-13T12:12:21.398Z,64.94
2023-01-13T12:13:21.538Z,76.05
2023-01-13T12:14:21.550Z,63.33
2023-01-13T12:15:21.842Z,64.13
2023-01-13T12:16:22.235Z,60.10
2023-01-13T12:17:22.430Z,65.10
2023-01-13T12:18:22.761Z,69.45
2023-01-13T12:19:22.981Z,69.61
2023-01-13T12:20:23.219Z,78.31
2023-01-13T12:21:25.972Z,75.57
2023-01-13T12:22:23.754Z,64.45
2023-01-13T12:23:24.143Z,66.55
2023-01-13T12:24:24.280Z,64.61
2023-01-13T12:25:24.605Z,69.77
2023-01-13T12:26:24.863Z,68.16
2023-01-13T12:27:25.200Z,72.35
2023-01-13T12:28:25.510Z,62.68
2023-01-13T12:29:25.780Z,71.38
2023-01-13T12:30:26.008Z,60.75
2023-01-13T12:31:27.013Z,60.42
2023-01-13T12:32:26.980Z,64.78
2023-01-13T12:33:28.265Z,66.23
2023-01-13T12:34:27.612Z,72.19
2023-01-13T12:35:31.521Z,62.84
2023-01-13T12:36:28.772Z,63.49
2023-01-13T12:37:29.337Z,63.65
2023-01-13T12:38:28.674Z,69.13
2023-01-13T12:39:29.128Z,60.26
2023-01-13T12:40:29.423Z,64.45
2023-01-13T12:41:29.837Z,64.78
2023-01-13T12:42:29.860Z,72.35
2023-01-13T12:43:29.884Z,77.83
2023-01-13T12:44:30.181Z,68.48
2023-01-13T12:45:30.626Z,59.30
2023-01-13T12:46:31.252Z,73.32
2023-01-13T12:47:30.984Z,67.68
2023-01-13T12:48:31.334Z,64.94
2023-01-13T12:49:31.775Z,69.13
2023-01-13T12:50:31.833Z,68.96
2023-01-13T12:51:32.122Z,77.83
2023-01-13T12:52:32.335Z,70.58
2023-01-13T12:53:32.614Z,67.84
2023-01-13T12:54:32.911Z,75.41
2023-01-13T12:55:33.200Z,64.78
2023-01-13T12:56:36.210Z,65.74